Time;durP1;ratioP1;P1;durP2;ratioP2;P2;SDS_P1;SDS_P2;PMS_P1;PMS_P2;Temp;Humidity;BMP_temperature;BMP_pressure;BME280_temperature;BME280_humidity;BME280_pressure;Samples;Min_cycle;Max_cycle;Signal;HPM_P1;HPM_P2
2023/03/05 00:00:45;;;;;;;23.25;8.45;;;;;;;;;;6269454;28;20048;-53
2023/03/05 00:04:00;;;;;;;23.33;7.68;;;;;;;;;;6271075;28;20136;-61
2023/03/05 00:07:00;;;;;;;21.98;7.80;;;;;;;;;;6268038;28;20076;-51
2023/03/05 00:10:03;;;;;;;22.40;9.25;;;;;;;;;;6269287;28;20133;-56
2023/03/05 00:13:04;;;;;;;;;;;;;;;;;;6291241;28;20480;-53
2023/03/05 00:16:08;;;;;;;23.52;8.30;;;;;;;;;;6278121;28;19956;-56
2023/03/05 00:19:09;;;;;;;19.10;8.30;;;;;;;;;;6286686;28;20140;-61
2023/03/05 00:22:10;;;;;;;25.17;9.63;;;;;;;;;;6273686;28;20048;-58
2023/03/05 00:25:11;;;;;;;22.90;9.57;;;;;;;;;;6269448;28;20150;-54
2023/03/05 00:28:12;;;;;;;25.35;10.38;;;;;;;;;;6268428;28;20059;-55
2023/03/05 00:31:12;;;;;;;41.50;14.88;;;;;;;;;;6279188;28;20048;-55
2023/03/05 00:34:15;;;;;;;35.40;14.10;;;;;;;;;;6275666;28;20051;-52
2023/03/05 00:37:15;;;;;;;;;;;;;;;;;;6276638;28;20059;-54
2023/03/05 00:40:17;;;;;;;25.67;10.57;;;;;;;;;;6272712;28;19959;-57
2023/03/05 00:43:17;;;;;;;28.55;10.90;;;;;;;;;;6276532;28;20045;-60
2023/03/05 00:46:18;;;;;;;26.75;10.60;;;;;;;;;;6287239;28;20555;-60
2023/03/05 00:49:19;;;;;;;26.75;10.07;;;;;;;;;;6274529;28;20048;-62
2023/03/05 00:52:19;;;;;;;23.13;8.95;;;;;;;;;;6277350;28;20049;-55
2023/03/05 00:55:20;;;;;;;24.40;9.00;;;;;;;;;;6276314;28;20051;-53
2023/03/05 00:58:21;;;;;;;23.40;10.13;;;;;;;;;;6274763;28;20135;-57
2023/03/05 01:01:22;;;;;;;18.77;8.25;;;;;;;;;;6277075;28;20565;-53
2023/03/05 01:04:23;;;;;;;23.38;6.07;;;;;;;;;;6280180;28;20400;-54
2023/03/05 01:07:23;;;;;;;14.30;5.05;;;;;;;;;;6274718;28;20048;-54
2023/03/05 01:10:25;;;;;;;13.60;4.53;;;;;;;;;;6276152;28;20056;-59
2023/03/05 01:13:26;;;;;;;13.47;5.30;;;;;;;;;;6276961;28;20041;-53
2023/03/05 01:16:26;;;;;;;13.50;4.88;;;;;;;;;;6278471;28;20044;-54
2023/03/05 01:19:27;;;;;;;14.90;4.88;;;;;;;;;;6272034;28;20665;-57
2023/03/05 01:22:28;;;;;;;19.75;6.22;;;;;;;;;;6277306;28;20045;-57
2023/03/05 01:25:29;;;;;;;12.27;5.03;;;;;;;;;;6277489;28;20045;-62
2023/03/05 01:28:29;;;;;;;11.10;3.95;;;;;;;;;;6276348;28;20040;-55
2023/03/05 01:31:30;;;;;;;19.42;5.95;;;;;;;;;;6275903;28;20427;-53
2023/03/05 01:34:31;;;;;;;12.77;4.72;;;;;;;;;;6277634;28;20053;-53
2023/03/05 01:37:31;;;;;;;15.02;4.18;;;;;;;;;;6274335;28;20094;-60
2023/03/05 01:40:32;;;;;;;12.70;4.10;;;;;;;;;;6282066;28;20052;-54
2023/03/05 01:43:32;;;;;;;12.77;4.25;;;;;;;;;;6272857;28;20476;-59
2023/03/05 01:46:35;;;;;;;10.30;3.72;;;;;;;;;;6277814;28;20052;-58
2023/03/05 01:49:37;;;;;;;;;;;;;;;;;;6279946;28;20044;-53
2023/03/05 01:52:42;;;;;;;12.35;4.22;;;;;;;;;;6279929;28;19924;-58
2023/03/05 01:55:43;;;;;;;11.95;4.43;;;;;;;;;;6274860;28;20495;-54
2023/03/05 01:58:44;;;;;;;12.65;4.70;;;;;;;;;;6272140;28;20135;-54
2023/03/05 02:01:47;;;;;;;11.75;5.70;;;;;;;;;;6276398;28;20503;-54
2023/03/05 02:04:59;;;;;;;15.23;5.80;;;;;;;;;;6275680;28;20491;-62
2023/03/05 02:08:02;;;;;;;11.07;4.68;;;;;;;;;;6274138;28;20557;-56
2023/03/05 02:11:04;;;;;;;20.42;7.57;;;;;;;;;;6274242;28;20080;-58
2023/03/05 02:14:06;;;;;;;28.75;9.23;;;;;;;;;;6274201;28;20464;-58
2023/03/05 02:17:08;;;;;;;20.80;7.40;;;;;;;;;;6273193;28;20102;-54
2023/03/05 02:20:15;;;;;;;13.82;5.95;;;;;;;;;;6270153;28;20436;-62
2023/03/05 02:23:18;;;;;;;14.07;4.80;;;;;;;;;;6278989;28;20056;-52
2023/03/05 02:26:18;;;;;;;11.65;5.00;;;;;;;;;;6271837;28;20045;-58
2023/03/05 02:29:20;;;;;;;11.75;4.10;;;;;;;;;;6274183;28;20234;-59
2023/03/05 02:32:20;;;;;;;12.50;4.15;;;;;;;;;;6281528;28;20092;-57
2023/03/05 02:35:22;;;;;;;11.30;4.30;;;;;;;;;;6281400;28;20058;-55
2023/03/05 02:38:22;;;;;;;11.27;4.18;;;;;;;;;;6269081;28;20924;-62
2023/03/05 02:41:23;;;;;;;12.70;4.38;;;;;;;;;;6271950;28;20169;-56
2023/03/05 02:44:24;;;;;;;10.48;3.70;;;;;;;;;;6273446;28;20138;-56
2023/03/05 02:47:28;;;;;;;8.70;3.47;;;;;;;;;;6277631;28;20044;-62
2023/03/05 02:50:31;;;;;;;9.05;3.50;;;;;;;;;;6273284;28;20100;-61
2023/03/05 02:53:32;;;;;;;12.97;3.67;;;;;;;;;;6281762;28;20051;-58
2023/03/05 02:56:33;;;;;;;9.23;3.88;;;;;;;;;;6267552;28;20048;-58
2023/03/05 02:59:33;;;;;;;11.30;3.95;;;;;;;;;;6281505;28;20078;-62
2023/03/05 03:02:34;;;;;;;12.82;3.85;;;;;;;;;;6274484;28;20466;-51
2023/03/05 03:05:35;;;;;;;10.38;3.67;;;;;;;;;;6277486;28;20056;-56
2023/03/05 03:08:36;;;;;;;11.40;4.28;;;;;;;;;;6270938;28;20055;-61
2023/03/05 03:11:36;;;;;;;9.63;3.92;;;;;;;;;;6273932;28;20463;-56
2023/03/05 03:14:40;;;;;;;9.20;3.45;;;;;;;;;;6275441;28;20041;-54
2023/03/05 03:17:40;;;;;;;8.80;3.75;;;;;;;;;;6272524;28;20053;-54
2023/03/05 03:20:41;;;;;;;11.40;3.70;;;;;;;;;;6278137;28;20149;-54
2023/03/05 03:23:42;;;;;;;10.52;4.25;;;;;;;;;;6275485;28;20056;-60
2023/03/05 03:26:42;;;;;;;9.02;3.60;;;;;;;;;;6272809;28;20053;-59
2023/03/05 03:29:43;;;;;;;10.52;3.55;;;;;;;;;;6270675;28;20053;-56
2023/03/05 03:32:44;;;;;;;8.02;3.20;;;;;;;;;;6277096;28;20509;-58
2023/03/05 03:35:45;;;;;;;10.18;3.70;;;;;;;;;;6274545;28;20049;-61
2023/03/05 03:38:46;;;;;;;12.13;4.13;;;;;;;;;;6268091;28;20095;-52
2023/03/05 03:41:51;;;;;;;11.07;4.40;;;;;;;;;;6272336;28;20045;-60
2023/03/05 03:44:51;;;;;;;14.45;3.63;;;;;;;;;;6277159;28;20040;-55
2023/03/05 03:47:52;;;;;;;10.05;3.88;;;;;;;;;;6273425;28;20041;-58
2023/03/05 03:50:52;;;;;;;10.10;4.43;;;;;;;;;;6269288;28;20400;-58
2023/03/05 03:53:53;;;;;;;15.57;4.80;;;;;;;;;;6273136;28;20079;-55
2023/03/05 03:56:54;;;;;;;11.80;4.15;;;;;;;;;;6271252;28;20044;-60
2023/03/05 03:59:55;;;;;;;10.30;4.22;;;;;;;;;;6271965;28;20068;-58
2023/03/05 04:02:56;;;;;;;12.80;4.70;;;;;;;;;;6271227;28;20064;-55
2023/03/05 04:05:56;;;;;;;9.20;4.15;;;;;;;;;;6271272;28;20094;-58
2023/03/05 04:08:57;;;;;;;11.32;4.40;;;;;;;;;;6277400;28;20059;-50
2023/03/05 04:11:57;;;;;;;10.98;4.97;;;;;;;;;;6270272;28;20045;-51
2023/03/05 04:14:58;;;;;;;13.23;5.40;;;;;;;;;;6271591;28;20041;-54
2023/03/05 04:17:59;;;;;;;11.15;4.97;;;;;;;;;;6274647;28;20053;-53
2023/03/05 04:21:00;;;;;;;12.00;5.15;;;;;;;;;;6288414;28;20032;-60
2023/03/05 04:24:00;;;;;;;11.63;5.28;;;;;;;;;;6271522;28;20144;-54
2023/03/05 04:27:01;;;;;;;13.90;5.68;;;;;;;;;;6271733;28;20040;-53
2023/03/05 04:30:02;;;;;;;14.02;5.95;;;;;;;;;;6265841;28;20139;-53
2023/03/05 04:33:03;;;;;;;16.95;6.15;;;;;;;;;;6271288;28;20432;-52
2023/03/05 04:36:04;;;;;;;15.85;6.90;;;;;;;;;;6269308;28;20064;-53
2023/03/05 04:39:04;;;;;;;13.25;6.07;;;;;;;;;;6270333;28;20064;-58
2023/03/05 04:42:05;;;;;;;15.18;7.30;;;;;;;;;;6270246;28;20076;-51
2023/03/05 04:45:07;;;;;;;17.08;8.10;;;;;;;;;;6268298;28;20057;-54
2023/03/05 04:48:09;;;;;;;20.23;10.18;;;;;;;;;;6268552;28;20048;-56
2023/03/05 04:51:10;;;;;;;20.45;9.77;;;;;;;;;;6266565;28;20045;-62
2023/03/05 04:54:10;;;;;;;23.67;10.65;;;;;;;;;;6286660;28;20521;-62
2023/03/05 04:57:11;;;;;;;22.45;10.85;;;;;;;;;;6282319;28;20041;-57
2023/03/05 05:00:14;;;;;;;20.30;9.40;;;;;;;;;;6270044;28;20064;-55
2023/03/05 05:03:14;;;;;;;18.83;8.75;;;;;;;;;;6270334;28;20173;-55
2023/03/05 05:06:15;;;;;;;18.45;8.32;;;;;;;;;;6268896;28;20053;-57
2023/03/05 05:09:15;;;;;;;22.05;8.35;;;;;;;;;;6268041;28;20055;-58
2023/03/05 05:12:16;;;;;;;19.70;9.05;;;;;;;;;;6276355;28;20064;-56
2023/03/05 05:15:17;;;;;;;24.30;9.05;;;;;;;;;;6269997;28;20056;-54
2023/03/05 05:18:18;;;;;;;19.50;7.95;;;;;;;;;;6282697;28;20084;-54
2023/03/05 05:21:19;;;;;;;18.45;8.18;;;;;;;;;;6273469;28;20128;-54
2023/03/05 05:24:19;;;;;;;21.55;8.45;;;;;;;;;;6270720;28;20501;-57
2023/03/05 05:27:20;;;;;;;21.25;8.55;;;;;;;;;;6270390;28;20052;-58
2023/03/05 05:30:21;;;;;;;22.52;9.65;;;;;;;;;;6276042;28;20041;-59
2023/03/05 05:33:22;;;;;;;24.08;9.13;;;;;;;;;;6274316;28;20052;-60
2023/03/05 05:36:23;;;;;;;22.57;9.93;;;;;;;;;;6271431;28;20047;-53
2023/03/05 05:39:23;;;;;;;21.10;8.93;;;;;;;;;;6273241;28;20040;-54
2023/03/05 05:42:24;;;;;;;27.38;9.93;;;;;;;;;;6277657;28;20098;-53
2023/03/05 05:45:25;;;;;;;19.27;8.32;;;;;;;;;;6274216;28;20049;-50
2023/03/05 05:48:31;;;;;;;18.35;8.15;;;;;;;;;;6276780;28;20045;-54
2023/03/05 05:51:31;;;;;;;17.27;7.55;;;;;;;;;;6294971;28;20064;-50
2023/03/05 05:54:32;;;;;;;16.73;6.85;;;;;;;;;;6274923;28;20053;-50
2023/03/05 05:57:34;;;;;;;13.93;6.45;;;;;;;;;;6271850;28;20040;-61
2023/03/05 06:00:34;;;;;;;14.55;5.90;;;;;;;;;;6286737;28;20479;-53
2023/03/05 06:03:35;;;;;;;12.38;5.57;;;;;;;;;;6276470;28;20048;-57
2023/03/05 06:06:36;;;;;;;15.00;6.22;;;;;;;;;;6294002;28;20071;-60
2023/03/05 06:09:36;;;;;;;12.07;5.68;;;;;;;;;;6273612;28;20045;-50
2023/03/05 06:12:37;;;;;;;12.27;5.90;;;;;;;;;;6273487;28;20083;-52
2023/03/05 06:15:37;;;;;;;14.10;6.32;;;;;;;;;;6275975;28;20049;-60
2023/03/05 06:18:38;;;;;;;11.75;5.97;;;;;;;;;;6290065;28;20075;-52
2023/03/05 06:21:39;;;;;;;13.35;6.63;;;;;;;;;;6280948;28;20526;-58
2023/03/05 06:24:40;;;;;;;16.00;6.65;;;;;;;;;;6287709;28;20041;-52
2023/03/05 06:27:40;;;;;;;16.77;6.60;;;;;;;;;;6269303;28;20041;-53
2023/03/05 06:30:41;;;;;;;16.90;7.70;;;;;;;;;;6272005;28;20084;-58
2023/03/05 06:33:42;;;;;;;14.50;6.65;;;;;;;;;;6279768;28;20586;-51
2023/03/05 06:36:43;;;;;;;18.55;7.28;;;;;;;;;;6280802;28;20070;-61
2023/03/05 06:39:43;;;;;;;17.13;7.88;;;;;;;;;;6270945;28;20049;-55
2023/03/05 06:42:44;;;;;;;19.70;8.43;;;;;;;;;;6270930;28;20059;-56
2023/03/05 06:45:45;;;;;;;17.10;6.82;;;;;;;;;;6275815;28;20432;-50
2023/03/05 06:48:47;;;;;;;14.77;6.00;;;;;;;;;;6274126;28;20048;-62
2023/03/05 06:51:47;;;;;;;16.13;8.17;;;;;;;;;;6275275;28;20048;-54
2023/03/05 06:54:48;;;;;;;13.60;5.32;;;;;;;;;;6282654;28;20049;-60
2023/03/05 06:57:48;;;;;;;12.30;5.63;;;;;;;;;;6271399;28;20554;-55
2023/03/05 07:00:49;;;;;;;10.60;5.72;;;;;;;;;;6271473;28;20040;-54
2023/03/05 07:03:51;;;;;;;16.40;5.32;;;;;;;;;;6272039;28;20044;-57
2023/03/05 07:06:52;;;;;;;13.35;5.55;;;;;;;;;;6272759;28;20048;-55
2023/03/05 07:09:53;;;;;;;13.32;6.00;;;;;;;;;;6281432;28;20674;-55
2023/03/05 07:12:53;;;;;;;15.10;6.35;;;;;;;;;;6282672;28;20391;-55
2023/03/05 07:15:56;;;;;;;17.15;6.88;;;;;;;;;;6272922;28;20044;-56
2023/03/05 07:18:58;;;;;;;20.48;8.60;;;;;;;;;;6271649;28;20456;-59
2023/03/05 07:21:58;;;;;;;21.30;9.48;;;;;;;;;;6288285;28;20072;-56
2023/03/05 07:24:59;;;;;;;18.60;9.05;;;;;;;;;;6282523;28;20036;-59
2023/03/05 07:28:00;;;;;;;15.57;6.10;;;;;;;;;;6288415;28;20060;-55
2023/03/05 07:31:04;;;;;;;13.23;6.28;;;;;;;;;;6282615;28;20083;-58
2023/03/05 07:34:05;;;;;;;13.23;5.40;;;;;;;;;;6284947;28;20049;-58
2023/03/05 07:37:06;;;;;;;14.10;8.83;;;;;;;;;;6279159;28;20059;-51
2023/03/05 07:40:07;;;;;;;17.13;7.53;;;;;;;;;;6288323;28;20049;-54
2023/03/05 07:43:08;;;;;;;23.63;11.73;;;;;;;;;;6269280;28;20049;-52
2023/03/05 07:46:10;;;;;;;17.45;9.07;;;;;;;;;;6271070;28;20450;-54
2023/03/05 07:49:11;;;;;;;27.52;14.00;;;;;;;;;;6271270;28;20052;-51
2023/03/05 07:52:11;;;;;;;30.02;16.83;;;;;;;;;;6290677;28;20044;-58
2023/03/05 07:55:12;;;;;;;29.30;11.85;;;;;;;;;;6290324;28;20106;-50
2023/03/05 07:58:13;;;;;;;28.55;12.38;;;;;;;;;;6290645;28;20118;-53
2023/03/05 08:01:14;;;;;;;28.17;11.75;;;;;;;;;;6279461;28;20067;-55
2023/03/05 08:04:14;;;;;;;25.17;10.73;;;;;;;;;;6269775;28;20132;-52
2023/03/05 08:07:15;;;;;;;22.60;10.43;;;;;;;;;;6269670;28;20060;-53
2023/03/05 08:10:16;;;;;;;27.52;11.93;;;;;;;;;;6268640;28;20041;-51
2023/03/05 08:13:17;;;;;;;26.60;14.10;;;;;;;;;;6270192;28;20464;-51
2023/03/05 08:16:20;;;;;;;22.88;10.52;;;;;;;;;;6268197;28;20053;-53
2023/03/05 08:19:21;;;;;;;24.45;11.38;;;;;;;;;;6265825;28;20041;-50
2023/03/05 08:22:21;;;;;;;23.23;10.45;;;;;;;;;;6267055;28;20041;-53
2023/03/05 08:25:22;;;;;;;22.40;9.82;;;;;;;;;;6269276;28;20068;-50
2023/03/05 08:28:22;;;;;;;22.83;10.85;;;;;;;;;;6267715;28;20040;-52
2023/03/05 08:31:25;;;;;;;22.75;10.10;;;;;;;;;;6269593;28;20086;-58
2023/03/05 08:34:26;;;;;;;20.13;9.93;;;;;;;;;;6268274;28;20080;-52
2023/03/05 08:37:26;;;;;;;20.02;10.20;;;;;;;;;;6278184;28;20677;-54
2023/03/05 08:40:27;;;;;;;25.48;10.00;;;;;;;;;;6279469;28;20476;-52
2023/03/05 08:43:29;;;;;;;21.88;10.45;;;;;;;;;;6274005;28;20545;-56
2023/03/05 08:46:30;;;;;;;25.67;11.43;;;;;;;;;;6280320;28;20455;-53
2023/03/05 08:49:31;;;;;;;23.38;11.13;;;;;;;;;;6277917;28;20049;-54
2023/03/05 08:52:31;;;;;;;25.00;10.98;;;;;;;;;;6279351;28;20056;-50
2023/03/05 08:55:32;;;;;;;26.60;11.70;;;;;;;;;;6294272;28;20047;-56
2023/03/05 08:58:33;;;;;;;21.60;11.15;;;;;;;;;;6291365;28;20064;-54
2023/03/05 09:01:34;;;;;;;27.20;12.65;;;;;;;;;;6273540;28;20048;-57
2023/03/05 09:04:36;;;;;;;28.75;10.98;;;;;;;;;;6276756;28;20055;-56
2023/03/05 09:07:36;;;;;;;24.73;14.20;;;;;;;;;;6272520;28;20060;-54
2023/03/05 09:10:37;;;;;;;26.33;11.85;;;;;;;;;;6275692;28;20037;-52
2023/03/05 09:13:38;;;;;;;27.70;14.95;;;;;;;;;;6273898;28;20558;-57
2023/03/05 09:16:40;;;;;;;28.23;13.65;;;;;;;;;;6271569;28;20521;-56
2023/03/05 09:19:41;;;;;;;25.65;12.55;;;;;;;;;;6270715;28;20048;-59
2023/03/05 09:22:41;;;;;;;26.63;13.45;;;;;;;;;;6276239;28;20076;-52
2023/03/05 09:25:42;;;;;;;27.13;12.00;;;;;;;;;;6274992;28;20172;-52
2023/03/05 09:28:42;;;;;;;23.80;11.40;;;;;;;;;;6271362;28;20037;-60
2023/03/05 09:31:43;;;;;;;26.80;13.20;;;;;;;;;;6272414;28;20147;-56
2023/03/05 09:34:43;;;;;;;29.52;12.25;;;;;;;;;;6284377;28;20514;-60
2023/03/05 09:37:44;;;;;;;28.17;12.52;;;;;;;;;;6284518;28;20550;-58
2023/03/05 09:40:50;;;;;;;25.85;11.95;;;;;;;;;;6274936;28;20055;-61
2023/03/05 09:44:07;;;;;;;22.90;11.00;;;;;;;;;;6272209;28;20402;-56
2023/03/05 09:47:28;;;;;;;27.80;11.95;;;;;;;;;;6267885;28;20041;-53
2023/03/05 09:50:37;;;;;;;28.33;11.55;;;;;;;;;;6274623;28;20526;-57
2023/03/05 09:53:45;;;;;;;29.40;12.80;;;;;;;;;;6273698;28;20052;-54
2023/03/05 09:56:50;;;;;;;29.15;12.52;;;;;;;;;;6273664;28;20053;-52
2023/03/05 09:59:56;;;;;;;26.27;12.57;;;;;;;;;;6272287;28;20041;-51
2023/03/05 10:02:59;;;;;;;29.45;12.30;;;;;;;;;;6272722;28;20052;-57
2023/03/05 10:06:20;;;;;;;30.25;13.23;;;;;;;;;;6290219;28;20048;-56
2023/03/05 10:09:50;;;;;;;26.88;12.60;;;;;;;;;;6284085;28;20070;-49
2023/03/05 10:12:55;;;;;;;29.85;12.98;;;;;;;;;;6273505;28;20052;-50
2023/03/05 10:16:06;;;;;;;28.15;11.82;;;;;;;;;;6274022;28;20059;-57
2023/03/05 10:19:22;;;;;;;25.08;11.27;;;;;;;;;;6274195;28;20048;-56
2023/03/05 10:22:28;;;;;;;25.75;12.00;;;;;;;;;;6274330;28;20472;-52
2023/03/05 10:25:45;;;;;;;34.47;13.38;;;;;;;;;;6274716;28;20052;-57
2023/03/05 10:29:04;;;;;;;26.98;12.32;;;;;;;;;;6282574;28;20068;-57
2023/03/05 10:32:17;;;;;;;26.63;12.05;;;;;;;;;;6293238;28;20059;-54
2023/03/05 10:35:27;;;;;;;27.27;11.90;;;;;;;;;;6275837;28;20254;-59
2023/03/05 10:38:37;;;;;;;30.35;12.45;;;;;;;;;;6273701;28;20049;-53
2023/03/05 10:41:52;;;;;;;27.50;11.13;;;;;;;;;;6273916;28;20053;-54
2023/03/05 10:44:58;;;;;;;26.05;10.40;;;;;;;;;;6275135;28;20404;-52
2023/03/05 10:48:11;;;;;;;26.92;10.80;;;;;;;;;;6292013;28;20044;-57
2023/03/05 10:51:20;;;;;;;;;;;;;;;;;;6272665;28;20537;-52
2023/03/05 10:54:32;;;;;;;20.00;7.88;;;;;;;;;;6273866;28;20290;-50
2023/03/05 10:57:33;;;;;;;21.83;7.65;;;;;;;;;;6272536;28;20744;-55
2023/03/05 11:00:33;;;;;;;17.40;7.95;;;;;;;;;;6271096;28;20044;-49
2023/03/05 11:03:55;;;;;;;18.20;8.18;;;;;;;;;;6272900;28;20076;-51
2023/03/05 11:06:55;;;;;;;18.45;6.97;;;;;;;;;;6271807;28;20049;-53
2023/03/05 11:09:59;;;;;;;16.17;6.88;;;;;;;;;;6269340;28;20063;-58
2023/03/05 11:13:00;;;;;;;18.90;7.78;;;;;;;;;;6270911;28;20052;-55
2023/03/05 11:16:03;;;;;;;14.30;6.30;;;;;;;;;;6269807;28;20880;-54
2023/03/05 11:19:12;;;;;;;17.80;6.55;;;;;;;;;;6280245;28;20054;-52
2023/03/05 11:22:19;;;;;;;15.43;5.45;;;;;;;;;;6279022;28;20499;-56
2023/03/05 11:25:21;;;;;;;16.75;6.60;;;;;;;;;;6273286;28;20507;-57
2023/03/05 11:28:30;;;;;;;14.52;5.82;;;;;;;;;;6271404;28;20048;-54
2023/03/05 11:31:31;;;;;;;16.13;5.85;;;;;;;;;;6267180;28;20046;-54
2023/03/05 11:34:34;;;;;;;15.83;5.57;;;;;;;;;;6270778;28;20128;-52
2023/03/05 11:37:35;;;;;;;20.30;6.78;;;;;;;;;;6272340;28;20075;-55
2023/03/05 11:40:35;;;;;;;18.13;6.03;;;;;;;;;;6288512;28;20049;-50
2023/03/05 11:43:40;;;;;;;14.35;6.10;;;;;;;;;;6286244;28;20136;-61
2023/03/05 11:46:45;;;;;;;19.02;6.07;;;;;;;;;;6275344;28;20045;-53
2023/03/05 11:49:48;;;;;;;23.88;6.35;;;;;;;;;;6290934;28;20053;-52
2023/03/05 11:53:11;;;;;;;18.33;6.15;;;;;;;;;;6273410;28;20045;-56
2023/03/05 11:56:30;;;;;;;16.38;5.40;;;;;;;;;;6269852;28;20136;-53
2023/03/05 11:59:36;;;;;;;17.25;6.07;;;;;;;;;;6269486;28;20450;-55
2023/03/05 12:02:37;;;;;;;13.75;5.93;;;;;;;;;;6281794;28;20134;-55
2023/03/05 12:05:43;;;;;;;17.55;7.00;;;;;;;;;;6284200;28;20506;-59
2023/03/05 12:08:48;;;;;;;13.30;5.88;;;;;;;;;;6270392;28;20105;-53
2023/03/05 12:11:53;;;;;;;17.10;6.05;;;;;;;;;;6269828;28;20043;-59
2023/03/05 12:15:13;;;;;;;15.65;5.35;;;;;;;;;;6288201;28;20037;-54
2023/03/05 12:18:27;;;;;;;11.93;4.68;;;;;;;;;;6276812;28;21606;-50
2023/03/05 12:21:35;;;;;;;9.40;4.30;;;;;;;;;;6275201;28;20060;-50
2023/03/05 12:24:37;;;;;;;13.88;4.35;;;;;;;;;;6270772;28;20049;-57
2023/03/05 12:27:38;;;;;;;11.73;4.97;;;;;;;;;;6277214;28;20048;-55
2023/03/05 12:30:42;;;;;;;12.50;4.60;;;;;;;;;;6287049;28;20569;-52
2023/03/05 12:33:43;;;;;;;13.15;5.20;;;;;;;;;;6272326;28;20549;-53
2023/03/05 12:36:43;;;;;;;15.10;4.93;;;;;;;;;;6270567;28;20045;-50
2023/03/05 12:39:46;;;;;;;12.23;5.45;;;;;;;;;;6268099;28;20049;-51
2023/03/05 12:43:16;;;;;;;;;;;;;;;;;;6271021;28;20049;-55
2023/03/05 12:46:28;;;;;;;15.45;5.50;;;;;;;;;;6272136;28;19924;-58
2023/03/05 12:49:34;;;;;;;14.60;5.40;;;;;;;;;;6287164;28;20047;-53
2023/03/05 12:52:38;;;;;;;9.90;3.83;;;;;;;;;;6290752;28;20403;-51
2023/03/05 12:55:57;;;;;;;9.20;4.25;;;;;;;;;;6275014;28;20524;-51
2023/03/05 12:59:01;;;;;;;10.65;4.07;;;;;;;;;;6266959;28;20114;-50
2023/03/05 13:02:09;;;;;;;9.40;3.88;;;;;;;;;;6266601;28;20416;-55
2023/03/05 13:05:27;;;;;;;10.98;3.85;;;;;;;;;;6266072;28;20037;-58
2023/03/05 13:08:34;;;;;;;11.13;4.20;;;;;;;;;;6267665;28;20041;-50
2023/03/05 13:11:37;;;;;;;12.00;4.30;;;;;;;;;;6266653;28;20132;-50
2023/03/05 13:14:44;;;;;;;8.57;3.80;;;;;;;;;;6265219;28;20471;-52
2023/03/05 13:18:17;;;;;;;11.13;4.07;;;;;;;;;;6267483;28;20090;-52
2023/03/05 13:21:22;;;;;;;7.32;3.30;;;;;;;;;;6269332;28;20127;-55
2023/03/05 13:24:23;;;;;;;8.57;3.38;;;;;;;;;;6267363;28;20469;-55
2023/03/05 13:27:29;;;;;;;8.52;3.15;;;;;;;;;;6288828;28;20045;-50
2023/03/05 13:30:30;;;;;;;7.07;2.72;;;;;;;;;;6274063;28;20053;-51
2023/03/05 13:33:33;;;;;;;7.22;3.00;;;;;;;;;;6270402;28;20041;-50
2023/03/05 13:36:36;;;;;;;10.40;3.67;;;;;;;;;;6270490;28;20056;-60
2023/03/05 13:39:46;;;;;;;7.82;2.92;;;;;;;;;;6272744;28;20059;-51
2023/03/05 13:42:47;;;;;;;10.63;3.00;;;;;;;;;;6286462;28;20072;-51
2023/03/05 13:45:53;;;;;;;9.90;3.42;;;;;;;;;;6283973;28;20056;-53
2023/03/05 13:48:55;;;;;;;6.88;3.30;;;;;;;;;;6276109;28;20604;-50
2023/03/05 13:51:58;;;;;;;8.75;3.70;;;;;;;;;;6275920;28;20052;-51
2023/03/05 13:55:00;;;;;;;10.30;3.83;;;;;;;;;;6275243;28;20130;-57
2023/03/05 13:58:01;;;;;;;10.40;3.42;;;;;;;;;;6275386;28;20099;-58
2023/03/05 14:01:17;;;;;;;7.65;3.13;;;;;;;;;;6275780;28;20567;-50
2023/03/05 14:04:39;;;;;;;9.93;3.58;;;;;;;;;;6289100;28;20755;-54
2023/03/05 14:07:40;;;;;;;8.55;3.38;;;;;;;;;;6281095;28;20423;-50
2023/03/05 14:10:41;;;;;;;9.63;3.10;;;;;;;;;;6286820;28;20048;-48
2023/03/05 14:13:43;;;;;;;9.32;3.38;;;;;;;;;;6290694;28;20384;-57
2023/03/05 14:16:44;;;;;;;8.63;3.45;;;;;;;;;;6285247;28;20063;-57
2023/03/05 14:19:44;;;;;;;14.02;4.78;;;;;;;;;;6288477;28;20041;-56
2023/03/05 14:22:49;;;;;;;11.20;3.88;;;;;;;;;;6291913;28;20094;-59
2023/03/05 14:25:50;;;;;;;8.27;3.45;;;;;;;;;;6294879;28;20051;-57
2023/03/05 14:28:53;;;;;;;8.73;4.00;;;;;;;;;;6294001;28;20040;-57
2023/03/05 14:32:23;;;;;;;8.45;3.35;;;;;;;;;;6293694;28;20131;-59
2023/03/05 14:35:26;;;;;;;9.15;3.38;;;;;;;;;;6292900;28;20055;-61
2023/03/05 14:38:30;;;;;;;13.38;4.10;;;;;;;;;;6294929;28;20071;-61
2023/03/05 14:41:35;;;;;;;10.73;3.50;;;;;;;;;;6283113;28;20045;-61
2023/03/05 14:44:36;;;;;;;15.85;6.45;;;;;;;;;;6285235;28;20478;-60
2023/03/05 14:47:37;;;;;;;11.00;3.63;;;;;;;;;;6294096;28;20041;-60
2023/03/05 14:50:43;;;;;;;8.75;3.88;;;;;;;;;;6291558;28;20044;-60
2023/03/05 14:53:46;;;;;;;15.05;4.00;;;;;;;;;;6286321;28;20055;-59
2023/03/05 14:56:48;;;;;;;11.25;3.63;;;;;;;;;;6290841;28;20503;-59
2023/03/05 14:59:48;;;;;;;9.75;3.75;;;;;;;;;;6280757;28;20123;-59
2023/03/05 15:02:49;;;;;;;9.25;4.20;;;;;;;;;;6278804;28;20121;-60
2023/03/05 15:05:54;;;;;;;10.20;4.45;;;;;;;;;;6285596;28;20051;-62
2023/03/05 15:08:54;;;;;;;11.43;3.80;;;;;;;;;;6286157;28;20040;-62
2023/03/05 15:11:55;;;;;;;14.57;4.28;;;;;;;;;;6293111;28;20147;-61
2023/03/05 15:14:56;;;;;;;11.65;4.55;;;;;;;;;;6289629;28;20059;-61
2023/03/05 15:17:57;;;;;;;8.60;3.78;;;;;;;;;;6293567;28;20582;-60
2023/03/05 15:20:57;;;;;;;12.88;4.60;;;;;;;;;;6292874;28;20181;-60
2023/03/05 15:23:58;;;;;;;11.88;4.47;;;;;;;;;;6292543;28;20124;-61
2023/03/05 15:26:59;;;;;;;11.55;4.05;;;;;;;;;;6292619;28;20415;-60
2023/03/05 15:29:59;;;;;;;9.90;3.90;;;;;;;;;;6292231;28;20505;-61
2023/03/05 15:33:04;;;;;;;8.35;3.88;;;;;;;;;;6291482;28;20562;-62
2023/03/05 15:36:05;;;;;;;8.90;3.25;;;;;;;;;;6284851;28;20056;-60
2023/03/05 15:39:06;;;;;;;11.32;3.05;;;;;;;;;;6280143;28;20445;-60
2023/03/05 15:42:06;;;;;;;9.23;3.53;;;;;;;;;;6287250;28;20049;-61
2023/03/05 15:45:08;;;;;;;10.13;3.42;;;;;;;;;;6289363;28;20068;-63
2023/03/05 15:48:08;;;;;;;10.02;3.97;;;;;;;;;;6289873;28;20040;-60
2023/03/05 15:51:09;;;;;;;12.82;4.57;;;;;;;;;;6273013;28;20110;-61
2023/03/05 15:54:10;;;;;;;10.40;4.30;;;;;;;;;;6275655;28;20580;-64
2023/03/05 15:57:11;;;;;;;11.00;4.25;;;;;;;;;;6271772;28;20045;-61
2023/03/05 16:00:14;;;;;;;11.18;4.70;;;;;;;;;;6270263;28;20076;-61
2023/03/05 16:03:15;;;;;;;13.00;4.85;;;;;;;;;;6266825;28;20233;-63
2023/03/05 16:06:24;;;;;;;11.90;4.88;;;;;;;;;;6269954;28;20060;-61
2023/03/05 16:09:30;;;;;;;11.60;4.60;;;;;;;;;;6268206;28;20052;-63
2023/03/05 16:12:39;;;;;;;10.45;5.18;;;;;;;;;;6273541;28;20105;-62
2023/03/05 16:15:41;;;;;;;11.55;4.60;;;;;;;;;;6267576;28;20040;-60
2023/03/05 16:18:45;;;;;;;13.23;4.60;;;;;;;;;;6269267;28;20053;-60
2023/03/05 16:21:46;;;;;;;12.32;4.60;;;;;;;;;;6269319;28;20301;-61
2023/03/05 16:24:46;;;;;;;12.00;4.93;;;;;;;;;;6263102;28;20057;-60
2023/03/05 16:27:47;;;;;;;9.60;4.72;;;;;;;;;;6269035;28;20048;-59
2023/03/05 16:30:52;;;;;;;14.75;6.35;;;;;;;;;;6266318;28;20051;-60
2023/03/05 16:33:53;;;;;;;10.77;4.60;;;;;;;;;;6267961;28;20558;-60
2023/03/05 16:36:53;;;;;;;11.70;5.13;;;;;;;;;;6269464;28;20076;-63
2023/03/05 16:39:57;;;;;;;11.50;4.85;;;;;;;;;;6266170;28;20059;-61
2023/03/05 16:42:58;;;;;;;11.23;5.32;;;;;;;;;;6269553;28;20075;-60
2023/03/05 16:45:59;;;;;;;12.77;5.25;;;;;;;;;;6273799;28;20578;-62
2023/03/05 16:48:59;;;;;;;14.90;5.50;;;;;;;;;;6277439;28;20045;-60
2023/03/05 16:52:01;;;;;;;13.05;5.30;;;;;;;;;;6281667;28;20044;-60
2023/03/05 16:55:03;;;;;;;15.38;7.13;;;;;;;;;;6280010;28;20055;-60
2023/03/05 16:58:04;;;;;;;19.60;6.90;;;;;;;;;;6280171;28;20427;-60
2023/03/05 17:01:18;;;;;;;18.65;7.00;;;;;;;;;;6280703;28;20891;-63
2023/03/05 17:04:19;;;;;;;16.50;6.68;;;;;;;;;;6278791;28;20094;-57
2023/03/05 17:07:19;;;;;;;17.58;6.97;;;;;;;;;;6280554;28;20450;-59
2023/03/05 17:10:20;;;;;;;19.38;7.10;;;;;;;;;;6278420;28;20068;-59
2023/03/05 17:13:21;;;;;;;16.40;7.03;;;;;;;;;;6281727;28;20040;-60
2023/03/05 17:16:22;;;;;;;20.20;8.30;;;;;;;;;;6284179;28;20155;-60
2023/03/05 17:19:22;;;;;;;20.33;8.25;;;;;;;;;;6284743;28;20470;-61
2023/03/05 17:22:23;;;;;;;20.63;8.80;;;;;;;;;;6284016;28;20479;-57
2023/03/05 17:25:23;;;;;;;19.98;7.60;;;;;;;;;;6280667;28;20048;-58
2023/03/05 17:28:25;;;;;;;15.82;7.13;;;;;;;;;;6280311;28;20491;-60
2023/03/05 17:31:26;;;;;;;24.45;9.73;;;;;;;;;;6285170;28;20037;-56
2023/03/05 17:34:26;;;;;;;22.35;9.85;;;;;;;;;;6282231;28;20056;-56
2023/03/05 17:37:27;;;;;;;20.13;10.30;;;;;;;;;;6283674;28;20049;-57
2023/03/05 17:40:28;;;;;;;23.75;11.35;;;;;;;;;;6278786;28;20076;-60
2023/03/05 17:43:28;;;;;;;26.85;11.45;;;;;;;;;;6282240;28;21365;-61
2023/03/05 17:46:29;;;;;;;31.08;13.75;;;;;;;;;;6281108;28;20056;-55
2023/03/05 17:49:30;;;;;;;25.45;11.85;;;;;;;;;;6282911;28;20041;-57
2023/03/05 17:52:31;;;;;;;27.95;11.90;;;;;;;;;;6283848;28;20434;-60
2023/03/05 17:55:32;;;;;;;24.25;11.00;;;;;;;;;;6283896;28;20449;-61
2023/03/05 17:58:33;;;;;;;23.60;10.68;;;;;;;;;;6282208;28;20053;-59
2023/03/05 18:01:34;;;;;;;24.88;11.57;;;;;;;;;;6284206;28;20052;-54